Hlavní strana
METAR-TAF:

METAR-TAF

Letiště :

Gabès, Tunisko

zeměpisná šířka: 33-53N, zeměpisná délka: 010-06E, výška: 4 m

Aktuální stav počasí

Zpráva byla vytvořena před 52 minutami, v 21:00 UTC
vítr z různých směrů 1 kt
Teplota 9°C
Vlhkost vzduchu 66%
Tlak 1027 hPa
Viditelnost 10 km a více
Žádná oblačnost pod 1500 m, nevyskytují se cumulonimby.

METAR: DTTG 182100Z VRB01KT CAVOK 09/03 Q1027 NOSIG

Čas: 22:52 (21:52 UTC)

Předpověď počasí

Zpráva byla vytvořena před 3 hodinami a 52 minutami, v 18:00 UTC
Předpověď platná od 18 v 19 UTC do 19 v 04 UTC
Východní vítr 5 kt
Viditelnost 10 km a více
Žádná oblačnost pod 1500 m, nevyskytují se cumulonimby.

TAF: DTTG 181800Z 1819/1904 10005KT CAVOK

Stav a předpovědi počasí z více než 4 000 letišť (zprávy METAR a TAF).

Červené a žluté tečky na mapě představují dostupné meteorologické stanice.

Když kurzor umístíte na tečku, zobrazí se název stanice.

Pak kliknutím zobrazíte stav a předpověď počasí.

Chcete-li změnit mapu, kliknutím na zelené tlačítko se znaménkem +mapu přiblížíte, kliknutím na zelené tlačítko se znaménkem – mapu oddálíte a kliknutím na zelené šipky přejdete na sousední mapy.


METAR-TAF: